sensor_id;sensor_type;location;lat;lon;timestamp;pressure;altitude;pressure_sealevel;temperature
28803;BMP280;15949;55.656;37.422;2023-10-09T00:01:55;96915.81;;;0.30
28803;BMP280;15949;55.656;37.422;2023-10-09T00:07:04;96921.91;;;0.37
28803;BMP280;15949;55.656;37.422;2023-10-09T00:12:17;96935.75;;;0.36
28803;BMP280;15949;55.656;37.422;2023-10-09T00:17:27;96938.22;;;0.33
28803;BMP280;15949;55.656;37.422;2023-10-09T00:22:36;96953.16;;;0.31
28803;BMP280;15949;55.656;37.422;2023-10-09T00:27:48;96967.38;;;0.40
28803;BMP280;15949;55.656;37.422;2023-10-09T00:32:54;96972.50;;;0.40
28803;BMP280;15949;55.656;37.422;2023-10-09T00:38:10;96981.84;;;0.36
28803;BMP280;15949;55.656;37.422;2023-10-09T00:43:27;96981.34;;;0.43
28803;BMP280;15949;55.656;37.422;2023-10-09T00:48:35;97004.41;;;0.43
28803;BMP280;15949;55.656;37.422;2023-10-09T00:53:49;97001.94;;;0.34
28803;BMP280;15949;55.656;37.422;2023-10-09T00:58:59;97015.16;;;0.36
28803;BMP280;15949;55.656;37.422;2023-10-09T01:04:12;97014.84;;;0.38
28803;BMP280;15949;55.656;37.422;2023-10-09T01:09:22;97015.69;;;0.42
28803;BMP280;15949;55.656;37.422;2023-10-09T01:14:29;97042.75;;;0.51
28803;BMP280;15949;55.656;37.422;2023-10-09T01:19:36;97047.88;;;0.51
28803;BMP280;15949;55.656;37.422;2023-10-09T01:24:42;97050.97;;;0.57
28803;BMP280;15949;55.656;37.422;2023-10-09T01:29:48;97069.09;;;0.52
28803;BMP280;15949;55.656;37.422;2023-10-09T01:34:57;97068.13;;;0.56
28803;BMP280;15949;55.656;37.422;2023-10-09T01:40:03;97075.38;;;0.54
28803;BMP280;15949;55.656;37.422;2023-10-09T01:45:30;97090.88;;;0.58
28803;BMP280;15949;55.656;37.422;2023-10-09T01:50:47;97100.50;;;0.61
28803;BMP280;15949;55.656;37.422;2023-10-09T01:55:53;97104.78;;;0.69
28803;BMP280;15949;55.656;37.422;2023-10-09T02:01:00;97123.47;;;0.70
28803;BMP280;15949;55.656;37.422;2023-10-09T02:06:10;97126.03;;;0.70
28803;BMP280;15949;55.656;37.422;2023-10-09T02:11:32;97141.13;;;0.71
28803;BMP280;15949;55.656;37.422;2023-10-09T02:16:50;97153.81;;;0.80
28803;BMP280;15949;55.656;37.422;2023-10-09T02:22:08;97166.88;;;0.87
28803;BMP280;15949;55.656;37.422;2023-10-09T02:27:20;97174.44;;;0.83
28803;BMP280;15949;55.656;37.422;2023-10-09T02:32:46;97174.44;;;0.83
28803;BMP280;15949;55.656;37.422;2023-10-09T02:37:58;97190.69;;;0.87
28803;BMP280;15949;55.656;37.422;2023-10-09T02:43:03;97199.63;;;0.81
28803;BMP280;15949;55.656;37.422;2023-10-09T02:48:09;97207.31;;;0.81
28803;BMP280;15949;55.656;37.422;2023-10-09T02:53:16;97217.72;;;0.85
28803;BMP280;15949;55.656;37.422;2023-10-09T02:58:25;97219.47;;;0.93
28803;BMP280;15949;55.656;37.422;2023-10-09T03:03:31;97241.31;;;0.90
28803;BMP280;15949;55.656;37.422;2023-10-09T03:08:41;97239.91;;;1.01
28803;BMP280;15949;55.656;37.422;2023-10-09T03:13:46;97248.41;;;0.93
28803;BMP280;15949;55.656;37.422;2023-10-09T03:18:52;97266.53;;;0.88
28803;BMP280;15949;55.656;37.422;2023-10-09T03:23:58;97265.72;;;0.96
28803;BMP280;15949;55.656;37.422;2023-10-09T03:29:06;97280.97;;;0.93
28803;BMP280;15949;55.656;37.422;2023-10-09T03:34:15;97281.09;;;0.96
28803;BMP280;15949;55.656;37.422;2023-10-09T03:39:21;97297.34;;;1.00
28803;BMP280;15949;55.656;37.422;2023-10-09T03:44:49;97292.41;;;0.95
28803;BMP280;15949;55.656;37.422;2023-10-09T03:49:58;97302.66;;;0.95
28803;BMP280;15949;55.656;37.422;2023-10-09T03:55:10;97311.00;;;0.92
28803;BMP280;15949;55.656;37.422;2023-10-09T04:00:16;97321.25;;;0.92
28803;BMP280;15949;55.656;37.422;2023-10-09T04:05:28;97314.78;;;0.86
28803;BMP280;15949;55.656;37.422;2023-10-09T04:10:34;97327.00;;;0.89
28803;BMP280;15949;55.656;37.422;2023-10-09T04:15:50;97347.25;;;0.82
28803;BMP280;15949;55.656;37.422;2023-10-09T04:20:58;97348.38;;;0.73
28803;BMP280;15949;55.656;37.422;2023-10-09T04:26:22;97356.09;;;0.64
28803;BMP280;15949;55.656;37.422;2023-10-09T04:31:35;97361.97;;;0.65
28803;BMP280;15949;55.656;37.422;2023-10-09T04:36:42;97367.22;;;0.68
28803;BMP280;15949;55.656;37.422;2023-10-09T04:42:02;97373.13;;;0.69
28803;BMP280;15949;55.656;37.422;2023-10-09T04:47:30;97377.63;;;0.72
28803;BMP280;15949;55.656;37.422;2023-10-09T04:52:42;97380.72;;;0.77
28803;BMP280;15949;55.656;37.422;2023-10-09T04:57:47;97382.69;;;0.80
28803;BMP280;15949;55.656;37.422;2023-10-09T05:03:06;97410.56;;;0.82
28803;BMP280;15949;55.656;37.422;2023-10-09T05:08:30;97409.75;;;0.69
28803;BMP280;15949;55.656;37.422;2023-10-09T05:13:38;97415.75;;;0.73
28803;BMP280;15949;55.656;37.422;2023-10-09T05:18:47;97419.34;;;0.81
28803;BMP280;15949;55.656;37.422;2023-10-09T05:24:03;97429.72;;;0.84
28803;BMP280;15949;55.656;37.422;2023-10-09T05:29:23;97431.34;;;0.89
28803;BMP280;15949;55.656;37.422;2023-10-09T05:34:42;97449.69;;;0.99
28803;BMP280;15949;55.656;37.422;2023-10-09T05:40:06;97452.00;;;0.92
28803;BMP280;15949;55.656;37.422;2023-10-09T05:45:21;97460.56;;;0.96
28803;BMP280;15949;55.656;37.422;2023-10-09T05:50:45;97476.03;;;1.09
28803;BMP280;15949;55.656;37.422;2023-10-09T05:56:10;97476.34;;;1.07
28803;BMP280;15949;55.656;37.422;2023-10-09T06:01:34;97487.38;;;1.08
28803;BMP280;15949;55.656;37.422;2023-10-09T06:06:55;97495.56;;;1.22
28803;BMP280;15949;55.656;37.422;2023-10-09T06:12:02;97505.84;;;1.22
28803;BMP280;15949;55.656;37.422;2023-10-09T06:17:26;97513.16;;;1.32
28803;BMP280;15949;55.656;37.422;2023-10-09T06:22:48;97518.88;;;1.37
28803;BMP280;15949;55.656;37.422;2023-10-09T06:28:03;97529.13;;;1.37
28803;BMP280;15949;55.656;37.422;2023-10-09T06:33:09;97536.75;;;1.46
28803;BMP280;15949;55.656;37.422;2023-10-09T06:38:24;97537.47;;;1.55
28803;BMP280;15949;55.656;37.422;2023-10-09T06:43:50;97556.78;;;1.61
28803;BMP280;15949;55.656;37.422;2023-10-09T06:48:58;97577.53;;;1.68
28803;BMP280;15949;55.656;37.422;2023-10-09T06:54:24;97580.97;;;1.72
28803;BMP280;15949;55.656;37.422;2023-10-09T06:59:31;97591.25;;;1.72
28803;BMP280;15949;55.656;37.422;2023-10-09T07:04:57;97593.13;;;1.63
28803;BMP280;15949;55.656;37.422;2023-10-09T07:10:15;97603.03;;;1.73
28803;BMP280;15949;55.656;37.422;2023-10-09T07:15:47;97617.56;;;1.69
28803;BMP280;15949;55.656;37.422;2023-10-09T07:21:13;97629.47;;;1.94
28803;BMP280;15949;55.656;37.422;2023-10-09T07:26:23;97635.06;;;1.96
28803;BMP280;15949;55.656;37.422;2023-10-09T07:31:28;97646.59;;;2.11
28803;BMP280;15949;55.656;37.422;2023-10-09T07:36:44;97639.66;;;2.03
28803;BMP280;15949;55.656;37.422;2023-10-09T07:41:53;97650.53;;;2.09
28803;BMP280;15949;55.656;37.422;2023-10-09T07:47:07;97670.84;;;2.01
28803;BMP280;15949;55.656;37.422;2023-10-09T07:52:31;97689.88;;;2.00
28803;BMP280;15949;55.656;37.422;2023-10-09T07:57:36;97685.72;;;2.08
28803;BMP280;15949;55.656;37.422;2023-10-09T08:02:45;97690.06;;;2.16
28803;BMP280;15949;55.656;37.422;2023-10-09T08:07:53;97692.53;;;2.33
28803;BMP280;15949;55.656;37.422;2023-10-09T08:13:24;97706.19;;;2.46
28803;BMP280;15949;55.656;37.422;2023-10-09T08:18:48;97704.59;;;2.74
28803;BMP280;15949;55.656;37.422;2023-10-09T08:23:56;97718.50;;;2.73
28803;BMP280;15949;55.656;37.422;2023-10-09T08:29:10;97725.69;;;2.68
28803;BMP280;15949;55.656;37.422;2023-10-09T08:34:25;97736.34;;;2.78
28803;BMP280;15949;55.656;37.422;2023-10-09T08:39:31;97744.03;;;2.78
28803;BMP280;15949;55.656;37.422;2023-10-09T08:44:41;97747.97;;;2.76
28803;BMP280;15949;55.656;37.422;2023-10-09T08:49:49;97752.00;;;2.85
28803;BMP280;15949;55.656;37.422;2023-10-09T08:54:56;97756.97;;;3.02
28803;BMP280;15949;55.656;37.422;2023-10-09T09:00:02;97763.59;;;2.91
28803;BMP280;15949;55.656;37.422;2023-10-09T09:05:21;97780.56;;;3.04
28803;BMP280;15949;55.656;37.422;2023-10-09T09:10:30;97785.53;;;3.10
28803;BMP280;15949;55.656;37.422;2023-10-09T09:15:46;97777.25;;;3.16
28803;BMP280;15949;55.656;37.422;2023-10-09T09:20:52;97782.53;;;3.20
28803;BMP280;15949;55.656;37.422;2023-10-09T09:25:59;97784.91;;;3.25
28803;BMP280;15949;55.656;37.422;2023-10-09T09:31:10;97790.34;;;3.44
28803;BMP280;15949;55.656;37.422;2023-10-09T09:36:19;97799.78;;;3.52
28803;BMP280;15949;55.656;37.422;2023-10-09T09:41:25;97797.84;;;3.61
28803;BMP280;15949;55.656;37.422;2023-10-09T09:46:33;97806.28;;;3.82
28803;BMP280;15949;55.656;37.422;2023-10-09T09:51:39;97806.78;;;3.88
28803;BMP280;15949;55.656;37.422;2023-10-09T09:56:48;97810.13;;;3.88
28803;BMP280;15949;55.656;37.422;2023-10-09T10:01:58;97809.06;;;3.89
28803;BMP280;15949;55.656;37.422;2023-10-09T10:07:12;97822.97;;;3.52
28803;BMP280;15949;55.656;37.422;2023-10-09T10:12:49;97832.19;;;3.53
28803;BMP280;15949;55.656;37.422;2023-10-09T10:23:19;97838.00;;;3.50
28803;BMP280;15949;55.656;37.422;2023-10-09T10:28:27;97851.72;;;3.54
28803;BMP280;15949;55.656;37.422;2023-10-09T10:39:06;97854.72;;;3.44
28803;BMP280;15949;55.656;37.422;2023-10-09T10:44:33;97850.50;;;3.39
28803;BMP280;15949;55.656;37.422;2023-10-09T10:49:43;97868.25;;;3.53
28803;BMP280;15949;55.656;37.422;2023-10-09T10:54:50;97867.38;;;3.49
28803;BMP280;15949;55.656;37.422;2023-10-09T11:00:22;97876.66;;;3.74
28803;BMP280;15949;55.656;37.422;2023-10-09T11:05:47;97896.59;;;3.65
28803;BMP280;15949;55.656;37.422;2023-10-09T11:11:11;97902.66;;;3.48
28803;BMP280;15949;55.656;37.422;2023-10-09T11:16:22;97901.38;;;3.22
28803;BMP280;15949;55.656;37.422;2023-10-09T11:21:46;97915.38;;;3.33
28803;BMP280;15949;55.656;37.422;2023-10-09T11:26:52;97924.41;;;3.39
28803;BMP280;15949;55.656;37.422;2023-10-09T11:32:02;97919.66;;;3.29
28803;BMP280;15949;55.656;37.422;2023-10-09T11:42:18;97946.13;;;3.09
28803;BMP280;15949;55.656;37.422;2023-10-09T11:47:41;97945.84;;;3.01
28803;BMP280;15949;55.656;37.422;2023-10-09T11:52:59;97943.56;;;3.09
28803;BMP280;15949;55.656;37.422;2023-10-09T11:58:18;97961.84;;;3.16
28803;BMP280;15949;55.656;37.422;2023-10-09T12:03:30;97964.53;;;2.98
28803;BMP280;15949;55.656;37.422;2023-10-09T12:08:36;97973.72;;;2.79
28803;BMP280;15949;55.656;37.422;2023-10-09T12:13:42;97978.53;;;2.80
28803;BMP280;15949;55.656;37.422;2023-10-09T12:18:48;97991.97;;;2.86
28803;BMP280;15949;55.656;37.422;2023-10-09T12:23:58;97991.50;;;2.92
28803;BMP280;15949;55.656;37.422;2023-10-09T12:29:04;98012.88;;;2.84
28803;BMP280;15949;55.656;37.422;2023-10-09T12:34:16;98015.75;;;2.83
28803;BMP280;15949;55.656;37.422;2023-10-09T12:39:22;98020.47;;;2.72
28803;BMP280;15949;55.656;37.422;2023-10-09T12:44:27;98016.22;;;2.76
28803;BMP280;15949;55.656;37.422;2023-10-09T12:49:33;98019.19;;;2.87
28803;BMP280;15949;55.656;37.422;2023-10-09T12:54:39;98034.59;;;2.95
28803;BMP280;15949;55.656;37.422;2023-10-09T12:59:44;98030.34;;;2.99
28803;BMP280;15949;55.656;37.422;2023-10-09T13:04:58;98045.28;;;3.06
28803;BMP280;15949;55.656;37.422;2023-10-09T13:10:05;98056.34;;;3.07
28803;BMP280;15949;55.656;37.422;2023-10-09T13:15:14;98064.88;;;2.98
28803;BMP280;15949;55.656;37.422;2023-10-09T13:20:20;98066.69;;;2.89
28803;BMP280;15949;55.656;37.422;2023-10-09T13:25:27;98072.19;;;2.79
28803;BMP280;15949;55.656;37.422;2023-10-09T13:30:43;98080.53;;;2.76
28803;BMP280;15949;55.656;37.422;2023-10-09T13:35:54;98090.84;;;2.68
28803;BMP280;15949;55.656;37.422;2023-10-09T13:41:00;98101.13;;;2.68
28803;BMP280;15949;55.656;37.422;2023-10-09T13:46:09;98102.34;;;2.62
28803;BMP280;15949;55.656;37.422;2023-10-09T13:51:17;98108.22;;;2.62
28803;BMP280;15949;55.656;37.422;2023-10-09T13:56:29;98113.41;;;2.45
28803;BMP280;15949;55.656;37.422;2023-10-09T14:01:34;98126.13;;;2.50
28803;BMP280;15949;55.656;37.422;2023-10-09T14:06:40;98135.34;;;2.42
28803;BMP280;15949;55.656;37.422;2023-10-09T14:11:49;98135.38;;;2.34
28803;BMP280;15949;55.656;37.422;2023-10-09T14:16:57;98133.53;;;2.34
28803;BMP280;15949;55.656;37.422;2023-10-09T14:22:03;98145.78;;;2.29
28803;BMP280;15949;55.656;37.422;2023-10-09T14:27:11;98145.19;;;2.32
28803;BMP280;15949;55.656;37.422;2023-10-09T14:32:23;98155.72;;;2.39
28803;BMP280;15949;55.656;37.422;2023-10-09T14:37:34;98157.88;;;2.37
28803;BMP280;15949;55.656;37.422;2023-10-09T14:42:40;98163.91;;;2.41
28803;BMP280;15949;55.656;37.422;2023-10-09T14:47:49;98169.22;;;2.44
28803;BMP280;15949;55.656;37.422;2023-10-09T14:52:55;98171.78;;;2.36
28803;BMP280;15949;55.656;37.422;2023-10-09T14:58:00;98174.38;;;2.36
28803;BMP280;15949;55.656;37.422;2023-10-09T15:03:06;98181.63;;;2.34
28803;BMP280;15949;55.656;37.422;2023-10-09T15:08:17;98185.69;;;2.35
28803;BMP280;15949;55.656;37.422;2023-10-09T15:13:23;98204.78;;;2.34
28803;BMP280;15949;55.656;37.422;2023-10-09T15:18:33;98207.16;;;2.30
28803;BMP280;15949;55.656;37.422;2023-10-09T15:23:39;98206.09;;;2.31
28803;BMP280;15949;55.656;37.422;2023-10-09T15:28:44;98208.22;;;2.38
28803;BMP280;15949;55.656;37.422;2023-10-09T15:33:50;98234.53;;;2.43
28803;BMP280;15949;55.656;37.422;2023-10-09T15:38:57;98240.00;;;2.42
28803;BMP280;15949;55.656;37.422;2023-10-09T15:44:06;98246.19;;;2.41
28803;BMP280;15949;55.656;37.422;2023-10-09T15:49:12;98248.91;;;2.44
28803;BMP280;15949;55.656;37.422;2023-10-09T15:54:19;98278.53;;;2.42
28803;BMP280;15949;55.656;37.422;2023-10-09T15:59:25;98274.75;;;2.39
28803;BMP280;15949;55.656;37.422;2023-10-09T16:04:31;98278.22;;;2.35
28803;BMP280;15949;55.656;37.422;2023-10-09T16:09:39;98280.19;;;2.38
28803;BMP280;15949;55.656;37.422;2023-10-09T16:14:45;98297.31;;;2.34
28803;BMP280;15949;55.656;37.422;2023-10-09T16:19:51;98295.19;;;2.36
28803;BMP280;15949;55.656;37.422;2023-10-09T16:24:59;98305.31;;;2.41
28803;BMP280;15949;55.656;37.422;2023-10-09T16:30:05;98311.09;;;2.46
28803;BMP280;15949;55.656;37.422;2023-10-09T16:35:17;98312.41;;;2.44
28803;BMP280;15949;55.656;37.422;2023-10-09T16:40:27;98313.00;;;2.41
28803;BMP280;15949;55.656;37.422;2023-10-09T16:45:35;98320.56;;;2.29
28803;BMP280;15949;55.656;37.422;2023-10-09T16:50:41;98320.56;;;2.29
28803;BMP280;15949;55.656;37.422;2023-10-09T16:55:52;98325.81;;;2.24
28803;BMP280;15949;55.656;37.422;2023-10-09T17:01:02;98328.25;;;2.20
28803;BMP280;15949;55.656;37.422;2023-10-09T17:06:12;98333.69;;;2.27
28803;BMP280;15949;55.656;37.422;2023-10-09T17:11:18;98347.13;;;2.16
28803;BMP280;15949;55.656;37.422;2023-10-09T17:16:28;98340.59;;;2.10
28803;BMP280;15949;55.656;37.422;2023-10-09T17:21:34;98343.41;;;1.99
28803;BMP280;15949;55.656;37.422;2023-10-09T17:26:42;98351.59;;;2.01
28803;BMP280;15949;55.656;37.422;2023-10-09T17:31:51;98349.31;;;2.00
28803;BMP280;15949;55.656;37.422;2023-10-09T17:36:57;98354.19;;;2.01
28803;BMP280;15949;55.656;37.422;2023-10-09T17:42:03;98355.84;;;2.06
28803;BMP280;15949;55.656;37.422;2023-10-09T17:47:10;98362.47;;;2.07
28803;BMP280;15949;55.656;37.422;2023-10-09T17:52:16;98356.75;;;2.01
28803;BMP280;15949;55.656;37.422;2023-10-09T17:57:22;98361.34;;;1.91
28803;BMP280;15949;55.656;37.422;2023-10-09T18:02:28;98364.47;;;1.79
28803;BMP280;15949;55.656;37.422;2023-10-09T18:07:34;98361.09;;;1.70
28803;BMP280;15949;55.656;37.422;2023-10-09T18:12:40;98361.78;;;1.62
28803;BMP280;15949;55.656;37.422;2023-10-09T18:17:46;98376.50;;;1.70
28803;BMP280;15949;55.656;37.422;2023-10-09T18:22:51;98378.44;;;1.65
28803;BMP280;15949;55.656;37.422;2023-10-09T18:27:59;98381.88;;;1.60
28803;BMP280;15949;55.656;37.422;2023-10-09T18:33:04;98378.81;;;1.58
28803;BMP280;15949;55.656;37.422;2023-10-09T18:38:10;98384.88;;;1.62
28803;BMP280;15949;55.656;37.422;2023-10-09T18:43:21;98397.03;;;1.70
28803;BMP280;15949;55.656;37.422;2023-10-09T18:48:28;98389.78;;;1.72
28803;BMP280;15949;55.656;37.422;2023-10-09T18:53:34;98396.78;;;1.80
28803;BMP280;15949;55.656;37.422;2023-10-09T18:58:41;98397.97;;;1.74
28803;BMP280;15949;55.656;37.422;2023-10-09T19:03:46;98397.88;;;1.79
28803;BMP280;15949;55.656;37.422;2023-10-09T19:08:53;98406.34;;;1.80
28803;BMP280;15949;55.656;37.422;2023-10-09T19:14:00;98405.09;;;1.77
28803;BMP280;15949;55.656;37.422;2023-10-09T19:19:06;98415.84;;;1.79
28803;BMP280;15949;55.656;37.422;2023-10-09T19:24:13;98418.03;;;1.72
28803;BMP280;15949;55.656;37.422;2023-10-09T19:29:19;98423.47;;;1.71
28803;BMP280;15949;55.656;37.422;2023-10-09T19:34:25;98421.16;;;1.61
28803;BMP280;15949;55.656;37.422;2023-10-09T19:39:31;98428.72;;;1.66
28803;BMP280;15949;55.656;37.422;2023-10-09T19:44:37;98429.22;;;1.54
28803;BMP280;15949;55.656;37.422;2023-10-09T19:49:44;98427.97;;;1.65
28803;BMP280;15949;55.656;37.422;2023-10-09T19:54:50;98430.38;;;1.62
28803;BMP280;15949;55.656;37.422;2023-10-09T19:59:59;98425.03;;;1.58
28803;BMP280;15949;55.656;37.422;2023-10-09T20:05:05;98432.28;;;1.56
28803;BMP280;15949;55.656;37.422;2023-10-09T20:10:12;98423.47;;;1.48
28803;BMP280;15949;55.656;37.422;2023-10-09T20:15:22;98428.38;;;1.45
28803;BMP280;15949;55.656;37.422;2023-10-09T20:20:28;98428.09;;;1.46
28803;BMP280;15949;55.656;37.422;2023-10-09T20:25:34;98427.00;;;1.39
28803;BMP280;15949;55.656;37.422;2023-10-09T20:30:40;98425.94;;;1.40
28803;BMP280;15949;55.656;37.422;2023-10-09T20:35:48;98418.47;;;1.30
28803;BMP280;15949;55.656;37.422;2023-10-09T20:40:56;98423.59;;;1.30
28803;BMP280;15949;55.656;37.422;2023-10-09T20:46:03;98415.50;;;1.36
28803;BMP280;15949;55.656;37.422;2023-10-09T20:51:09;98428.91;;;1.33
28803;BMP280;15949;55.656;37.422;2023-10-09T20:56:15;98431.28;;;1.43
28803;BMP280;15949;55.656;37.422;2023-10-09T21:01:21;98429.28;;;1.40
28803;BMP280;15949;55.656;37.422;2023-10-09T21:06:29;98431.06;;;1.40
28803;BMP280;15949;55.656;37.422;2023-10-09T21:11:35;98436.88;;;1.32
28803;BMP280;15949;55.656;37.422;2023-10-09T21:16:40;98439.75;;;1.30
28803;BMP280;15949;55.656;37.422;2023-10-09T21:21:46;98446.69;;;1.30
28803;BMP280;15949;55.656;37.422;2023-10-09T21:26:51;98454.94;;;1.27
28803;BMP280;15949;55.656;37.422;2023-10-09T21:31:59;98451.47;;;1.23
28803;BMP280;15949;55.656;37.422;2023-10-09T21:37:05;98445.63;;;1.31
28803;BMP280;15949;55.656;37.422;2023-10-09T21:42:15;98447.25;;;1.27
28803;BMP280;15949;55.656;37.422;2023-10-09T21:47:20;98446.63;;;1.21
28803;BMP280;15949;55.656;37.422;2023-10-09T21:52:26;98454.88;;;1.18
28803;BMP280;15949;55.656;37.422;2023-10-09T21:57:31;98452.03;;;1.20
28803;BMP280;15949;55.656;37.422;2023-10-09T22:02:37;98461.06;;;1.17
28803;BMP280;15949;55.656;37.422;2023-10-09T22:07:43;98453.72;;;1.24
28803;BMP280;15949;55.656;37.422;2023-10-09T22:12:49;98466.09;;;1.22
28803;BMP280;15949;55.656;37.422;2023-10-09T22:17:54;98468.88;;;1.12
28803;BMP280;15949;55.656;37.422;2023-10-09T22:23:00;98476.06;;;1.10
28803;BMP280;15949;55.656;37.422;2023-10-09T22:28:06;98476.47;;;1.03
28803;BMP280;15949;55.656;37.422;2023-10-09T22:33:14;98476.09;;;0.96
28803;BMP280;15949;55.656;37.422;2023-10-09T22:38:25;98481.59;;;1.03
28803;BMP280;15949;55.656;37.422;2023-10-09T22:43:34;98480.63;;;0.99
28803;BMP280;15949;55.656;37.422;2023-10-09T22:48:44;98486.34;;;0.96
28803;BMP280;15949;55.656;37.422;2023-10-09T22:53:53;98481.78;;;1.07
28803;BMP280;15949;55.656;37.422;2023-10-09T22:58:59;98488.06;;;1.01
28803;BMP280;15949;55.656;37.422;2023-10-09T23:04:25;98486.91;;;1.07
28803;BMP280;15949;55.656;37.422;2023-10-09T23:09:46;98492.50;;;1.09
28803;BMP280;15949;55.656;37.422;2023-10-09T23:14:59;98494.72;;;1.16
28803;BMP280;15949;55.656;37.422;2023-10-09T23:20:08;98494.03;;;1.10
28803;BMP280;15949;55.656;37.422;2023-10-09T23:25:20;98497.56;;;1.00
28803;BMP280;15949;55.656;37.422;2023-10-09T23:30:38;98494.13;;;1.05
28803;BMP280;15949;55.656;37.422;2023-10-09T23:35:44;98499.44;;;1.09
28803;BMP280;15949;55.656;37.422;2023-10-09T23:40:55;98489.09;;;1.14
28803;BMP280;15949;55.656;37.422;2023-10-09T23:46:01;98492.91;;;1.16
28803;BMP280;15949;55.656;37.422;2023-10-09T23:51:07;98491.28;;;0.93
28803;BMP280;15949;55.656;37.422;2023-10-09T23:56:17;98488.31;;;0.86
